sensor_id;sensor_type;location;lat;lon;timestamp;temperature;humidity
5960;DHT22;3006;50.956;7.002;2022-10-22T00:01:01;15.40;99.90
5960;DHT22;3006;50.956;7.002;2022-10-22T00:03:29;15.40;99.90
5960;DHT22;3006;50.956;7.002;2022-10-22T00:05:57;15.40;99.90
5960;DHT22;3006;50.956;7.002;2022-10-22T00:08:25;15.30;99.90
5960;DHT22;3006;50.956;7.002;2022-10-22T00:10:54;15.30;99.90
5960;DHT22;3006;50.956;7.002;2022-10-22T00:13:22;15.30;99.90
5960;DHT22;3006;50.956;7.002;2022-10-22T00:15:50;15.20;99.90
5960;DHT22;3006;50.956;7.002;2022-10-22T00:18:20;15.30;99.90
5960;DHT22;3006;50.956;7.002;2022-10-22T00:20:48;15.30;99.90
5960;DHT22;3006;50.956;7.002;2022-10-22T00:23:15;15.30;99.90
5960;DHT22;3006;50.956;7.002;2022-10-22T00:25:44;15.30;99.90
5960;DHT22;3006;50.956;7.002;2022-10-22T00:28:12;15.30;99.90
5960;DHT22;3006;50.956;7.002;2022-10-22T00:30:40;15.30;99.90
5960;DHT22;3006;50.956;7.002;2022-10-22T00:33:08;15.30;99.90
5960;DHT22;3006;50.956;7.002;2022-10-22T00:35:38;15.30;99.90
5960;DHT22;3006;50.956;7.002;2022-10-22T00:38:06;15.40;99.90
5960;DHT22;3006;50.956;7.002;2022-10-22T00:40:34;15.30;99.90
5960;DHT22;3006;50.956;7.002;2022-10-22T00:43:03;15.30;99.90
5960;DHT22;3006;50.956;7.002;2022-10-22T00:45:31;15.40;99.90
5960;DHT22;3006;50.956;7.002;2022-10-22T00:48:02;15.40;99.90
5960;DHT22;3006;50.956;7.002;2022-10-22T00:50:33;15.40;99.90
5960;DHT22;3006;50.956;7.002;2022-10-22T00:53:05;15.40;99.90
5960;DHT22;3006;50.956;7.002;2022-10-22T00:55:35;15.40;99.90
5960;DHT22;3006;50.956;7.002;2022-10-22T00:58:03;15.40;99.90
5960;DHT22;3006;50.956;7.002;2022-10-22T01:00:32;15.40;99.90
5960;DHT22;3006;50.956;7.002;2022-10-22T01:03:00;15.30;99.90
5960;DHT22;3006;50.956;7.002;2022-10-22T01:05:30;15.40;99.90
5960;DHT22;3006;50.956;7.002;2022-10-22T01:07:59;15.40;99.90
5960;DHT22;3006;50.956;7.002;2022-10-22T01:10:40;15.30;99.90
5960;DHT22;3006;50.956;7.002;2022-10-22T01:13:16;15.40;99.90
5960;DHT22;3006;50.956;7.002;2022-10-22T01:15:55;15.30;99.90
5960;DHT22;3006;50.956;7.002;2022-10-22T01:18:33;15.30;99.90
5960;DHT22;3006;50.956;7.002;2022-10-22T01:21:11;15.30;99.90
5960;DHT22;3006;50.956;7.002;2022-10-22T01:24:04;15.30;99.90
5960;DHT22;3006;50.956;7.002;2022-10-22T01:26:45;15.30;99.90
5960;DHT22;3006;50.956;7.002;2022-10-22T01:29:23;15.30;99.90
5960;DHT22;3006;50.956;7.002;2022-10-22T01:31:55;15.30;99.90
5960;DHT22;3006;50.956;7.002;2022-10-22T01:34:25;15.30;99.90
5960;DHT22;3006;50.956;7.002;2022-10-22T01:36:55;15.30;99.90
5960;DHT22;3006;50.956;7.002;2022-10-22T01:39:24;15.20;99.90
5960;DHT22;3006;50.956;7.002;2022-10-22T01:41:54;15.30;99.90
5960;DHT22;3006;50.956;7.002;2022-10-22T01:44:28;15.30;99.90
5960;DHT22;3006;50.956;7.002;2022-10-22T01:47:04;15.20;99.90
5960;DHT22;3006;50.956;7.002;2022-10-22T01:49:46;15.30;99.90
5960;DHT22;3006;50.956;7.002;2022-10-22T01:52:26;15.20;99.90
5960;DHT22;3006;50.956;7.002;2022-10-22T01:55:05;15.20;99.90
5960;DHT22;3006;50.956;7.002;2022-10-22T01:57:42;15.20;99.90
5960;DHT22;3006;50.956;7.002;2022-10-22T02:00:13;15.20;99.90
5960;DHT22;3006;50.956;7.002;2022-10-22T02:02:48;15.20;99.90
5960;DHT22;3006;50.956;7.002;2022-10-22T02:05:20;15.20;99.90
5960;DHT22;3006;50.956;7.002;2022-10-22T02:07:53;15.30;99.90
5960;DHT22;3006;50.956;7.002;2022-10-22T02:10:22;15.20;99.90
5960;DHT22;3006;50.956;7.002;2022-10-22T02:12:53;15.20;99.90
5960;DHT22;3006;50.956;7.002;2022-10-22T02:15:25;15.20;99.90
5960;DHT22;3006;50.956;7.002;2022-10-22T02:17:55;15.20;99.90
5960;DHT22;3006;50.956;7.002;2022-10-22T02:20:27;15.20;99.90
5960;DHT22;3006;50.956;7.002;2022-10-22T02:22:56;15.20;99.90
5960;DHT22;3006;50.956;7.002;2022-10-22T02:25:28;15.20;99.90
5960;DHT22;3006;50.956;7.002;2022-10-22T02:28:01;15.20;99.90
5960;DHT22;3006;50.956;7.002;2022-10-22T02:30:31;15.20;99.90
5960;DHT22;3006;50.956;7.002;2022-10-22T02:33:03;15.20;99.90
5960;DHT22;3006;50.956;7.002;2022-10-22T02:35:35;15.20;99.90
5960;DHT22;3006;50.956;7.002;2022-10-22T02:38:06;15.20;99.90
5960;DHT22;3006;50.956;7.002;2022-10-22T02:40:35;15.20;99.90
5960;DHT22;3006;50.956;7.002;2022-10-22T02:43:03;15.10;99.90
5960;DHT22;3006;50.956;7.002;2022-10-22T02:45:33;15.10;99.90
5960;DHT22;3006;50.956;7.002;2022-10-22T02:48:02;15.10;99.90
5960;DHT22;3006;50.956;7.002;2022-10-22T02:50:30;15.10;99.90
5960;DHT22;3006;50.956;7.002;2022-10-22T02:52:58;15.10;99.90
5960;DHT22;3006;50.956;7.002;2022-10-22T02:55:26;15.10;99.90
5960;DHT22;3006;50.956;7.002;2022-10-22T02:57:54;15.10;99.90
5960;DHT22;3006;50.956;7.002;2022-10-22T03:00:22;15.00;99.90
5960;DHT22;3006;50.956;7.002;2022-10-22T03:02:51;15.00;99.90
5960;DHT22;3006;50.956;7.002;2022-10-22T03:05:19;15.00;99.90
5960;DHT22;3006;50.956;7.002;2022-10-22T03:07:49;15.00;99.90
5960;DHT22;3006;50.956;7.002;2022-10-22T03:10:17;15.00;99.90
5960;DHT22;3006;50.956;7.002;2022-10-22T03:12:45;15.00;99.90
5960;DHT22;3006;50.956;7.002;2022-10-22T03:15:14;15.00;99.90
5960;DHT22;3006;50.956;7.002;2022-10-22T03:17:42;15.00;99.90
5960;DHT22;3006;50.956;7.002;2022-10-22T03:20:11;15.00;99.90
5960;DHT22;3006;50.956;7.002;2022-10-22T03:22:40;14.90;99.90
5960;DHT22;3006;50.956;7.002;2022-10-22T03:25:12;14.80;99.90
5960;DHT22;3006;50.956;7.002;2022-10-22T03:27:42;14.90;99.90
5960;DHT22;3006;50.956;7.002;2022-10-22T03:30:10;14.80;99.90
5960;DHT22;3006;50.956;7.002;2022-10-22T03:32:39;14.80;99.90
5960;DHT22;3006;50.956;7.002;2022-10-22T03:35:07;14.80;99.90
5960;DHT22;3006;50.956;7.002;2022-10-22T03:37:37;14.80;99.90
5960;DHT22;3006;50.956;7.002;2022-10-22T03:40:07;14.70;99.90
5960;DHT22;3006;50.956;7.002;2022-10-22T03:42:37;14.70;99.90
5960;DHT22;3006;50.956;7.002;2022-10-22T03:45:06;14.60;99.90
5960;DHT22;3006;50.956;7.002;2022-10-22T03:47:35;14.60;99.90
5960;DHT22;3006;50.956;7.002;2022-10-22T03:50:04;14.70;99.90
5960;DHT22;3006;50.956;7.002;2022-10-22T03:52:37;14.70;99.90
5960;DHT22;3006;50.956;7.002;2022-10-22T03:55:06;14.80;99.90
5960;DHT22;3006;50.956;7.002;2022-10-22T03:57:34;14.70;99.90
5960;DHT22;3006;50.956;7.002;2022-10-22T04:00:04;14.70;99.90
5960;DHT22;3006;50.956;7.002;2022-10-22T04:02:33;14.70;99.90
5960;DHT22;3006;50.956;7.002;2022-10-22T04:05:01;14.70;99.90
5960;DHT22;3006;50.956;7.002;2022-10-22T04:07:29;14.70;99.90
5960;DHT22;3006;50.956;7.002;2022-10-22T04:09:58;14.70;99.90
5960;DHT22;3006;50.956;7.002;2022-10-22T04:12:26;14.70;99.90
5960;DHT22;3006;50.956;7.002;2022-10-22T04:14:54;14.70;99.90
5960;DHT22;3006;50.956;7.002;2022-10-22T04:17:22;14.70;99.90
5960;DHT22;3006;50.956;7.002;2022-10-22T04:19:50;14.70;99.90
5960;DHT22;3006;50.956;7.002;2022-10-22T04:22:18;14.70;99.90
5960;DHT22;3006;50.956;7.002;2022-10-22T04:24:46;14.70;99.90
5960;DHT22;3006;50.956;7.002;2022-10-22T04:27:15;14.70;99.90
5960;DHT22;3006;50.956;7.002;2022-10-22T04:29:43;14.70;99.90
5960;DHT22;3006;50.956;7.002;2022-10-22T04:32:11;14.70;99.90
5960;DHT22;3006;50.956;7.002;2022-10-22T04:34:39;14.70;99.90
5960;DHT22;3006;50.956;7.002;2022-10-22T04:37:07;14.70;99.90
5960;DHT22;3006;50.956;7.002;2022-10-22T04:39:35;14.70;99.90
5960;DHT22;3006;50.956;7.002;2022-10-22T04:42:03;14.60;99.90
5960;DHT22;3006;50.956;7.002;2022-10-22T04:44:33;14.60;99.90
5960;DHT22;3006;50.956;7.002;2022-10-22T04:47:01;14.60;99.90
5960;DHT22;3006;50.956;7.002;2022-10-22T04:49:29;14.50;99.90
5960;DHT22;3006;50.956;7.002;2022-10-22T04:51:57;14.50;99.90
5960;DHT22;3006;50.956;7.002;2022-10-22T04:54:25;14.50;99.90
5960;DHT22;3006;50.956;7.002;2022-10-22T04:56:58;14.50;99.90
5960;DHT22;3006;50.956;7.002;2022-10-22T04:59:26;14.40;99.90
5960;DHT22;3006;50.956;7.002;2022-10-22T05:01:56;14.40;99.90
5960;DHT22;3006;50.956;7.002;2022-10-22T05:04:24;14.30;99.90
5960;DHT22;3006;50.956;7.002;2022-10-22T05:06:52;14.30;99.90
5960;DHT22;3006;50.956;7.002;2022-10-22T05:09:20;14.30;99.90
5960;DHT22;3006;50.956;7.002;2022-10-22T05:11:50;14.30;99.90
5960;DHT22;3006;50.956;7.002;2022-10-22T05:14:21;14.20;99.90
5960;DHT22;3006;50.956;7.002;2022-10-22T05:16:50;14.20;99.90
5960;DHT22;3006;50.956;7.002;2022-10-22T05:19:22;14.20;99.90
5960;DHT22;3006;50.956;7.002;2022-10-22T05:21:50;14.20;99.90
5960;DHT22;3006;50.956;7.002;2022-10-22T05:24:19;14.20;99.90
5960;DHT22;3006;50.956;7.002;2022-10-22T05:26:48;14.20;99.90
5960;DHT22;3006;50.956;7.002;2022-10-22T05:29:17;14.20;99.90
5960;DHT22;3006;50.956;7.002;2022-10-22T05:31:45;14.10;99.90
5960;DHT22;3006;50.956;7.002;2022-10-22T05:34:13;14.10;99.90
5960;DHT22;3006;50.956;7.002;2022-10-22T05:36:43;14.10;99.90
5960;DHT22;3006;50.956;7.002;2022-10-22T05:39:11;14.20;99.90
5960;DHT22;3006;50.956;7.002;2022-10-22T05:41:39;14.20;99.90
5960;DHT22;3006;50.956;7.002;2022-10-22T05:44:10;14.20;99.90
5960;DHT22;3006;50.956;7.002;2022-10-22T05:46:38;14.20;99.90
5960;DHT22;3006;50.956;7.002;2022-10-22T05:49:06;14.20;99.90
5960;DHT22;3006;50.956;7.002;2022-10-22T05:51:36;14.20;99.90
5960;DHT22;3006;50.956;7.002;2022-10-22T05:54:07;14.20;99.90
5960;DHT22;3006;50.956;7.002;2022-10-22T05:56:37;14.20;99.90
5960;DHT22;3006;50.956;7.002;2022-10-22T05:59:05;14.20;99.90
5960;DHT22;3006;50.956;7.002;2022-10-22T06:01:34;14.20;99.90
5960;DHT22;3006;50.956;7.002;2022-10-22T06:04:04;14.20;99.90
5960;DHT22;3006;50.956;7.002;2022-10-22T06:06:33;14.20;99.90
5960;DHT22;3006;50.956;7.002;2022-10-22T06:09:06;14.20;99.90
5960;DHT22;3006;50.956;7.002;2022-10-22T06:11:37;14.20;99.90
5960;DHT22;3006;50.956;7.002;2022-10-22T06:14:05;14.20;99.90
5960;DHT22;3006;50.956;7.002;2022-10-22T06:16:33;14.30;99.90
5960;DHT22;3006;50.956;7.002;2022-10-22T06:19:01;14.30;99.90
5960;DHT22;3006;50.956;7.002;2022-10-22T06:21:30;14.40;99.90
5960;DHT22;3006;50.956;7.002;2022-10-22T06:23:59;14.40;99.90
5960;DHT22;3006;50.956;7.002;2022-10-22T06:26:30;14.50;99.90
5960;DHT22;3006;50.956;7.002;2022-10-22T06:28:58;14.50;99.90
5960;DHT22;3006;50.956;7.002;2022-10-22T06:31:27;14.60;99.90
5960;DHT22;3006;50.956;7.002;2022-10-22T06:33:55;14.60;99.90
5960;DHT22;3006;50.956;7.002;2022-10-22T06:36:23;14.70;99.90
5960;DHT22;3006;50.956;7.002;2022-10-22T06:38:52;14.70;99.90
5960;DHT22;3006;50.956;7.002;2022-10-22T06:41:21;14.80;99.90
5960;DHT22;3006;50.956;7.002;2022-10-22T06:43:56;14.80;99.90
5960;DHT22;3006;50.956;7.002;2022-10-22T06:46:25;14.80;99.90
5960;DHT22;3006;50.956;7.002;2022-10-22T06:48:55;14.80;99.90
5960;DHT22;3006;50.956;7.002;2022-10-22T06:51:24;14.90;99.90
5960;DHT22;3006;50.956;7.002;2022-10-22T06:53:52;14.90;99.90
5960;DHT22;3006;50.956;7.002;2022-10-22T06:56:22;14.90;99.90
5960;DHT22;3006;50.956;7.002;2022-10-22T06:58:52;14.90;99.90
5960;DHT22;3006;50.956;7.002;2022-10-22T07:01:23;14.90;99.90
5960;DHT22;3006;50.956;7.002;2022-10-22T07:03:51;14.90;99.90
5960;DHT22;3006;50.956;7.002;2022-10-22T07:06:20;14.80;99.90
5960;DHT22;3006;50.956;7.002;2022-10-22T07:08:49;14.80;99.90
5960;DHT22;3006;50.956;7.002;2022-10-22T07:11:19;14.80;99.90
5960;DHT22;3006;50.956;7.002;2022-10-22T07:13:48;14.80;99.90
5960;DHT22;3006;50.956;7.002;2022-10-22T07:16:17;14.80;99.90
5960;DHT22;3006;50.956;7.002;2022-10-22T07:18:47;14.80;99.90
5960;DHT22;3006;50.956;7.002;2022-10-22T07:21:17;14.90;99.90
5960;DHT22;3006;50.956;7.002;2022-10-22T07:23:46;14.90;99.90
5960;DHT22;3006;50.956;7.002;2022-10-22T07:26:16;14.90;99.90
5960;DHT22;3006;50.956;7.002;2022-10-22T07:28:46;14.90;99.90
5960;DHT22;3006;50.956;7.002;2022-10-22T07:31:15;14.90;99.90
5960;DHT22;3006;50.956;7.002;2022-10-22T07:33:43;15.00;99.90
5960;DHT22;3006;50.956;7.002;2022-10-22T07:36:15;15.00;99.90
5960;DHT22;3006;50.956;7.002;2022-10-22T07:38:44;15.10;99.90
5960;DHT22;3006;50.956;7.002;2022-10-22T07:41:13;15.20;99.90
5960;DHT22;3006;50.956;7.002;2022-10-22T07:43:41;15.30;99.90
5960;DHT22;3006;50.956;7.002;2022-10-22T07:46:10;15.40;99.90
5960;DHT22;3006;50.956;7.002;2022-10-22T07:48:38;15.50;99.90
5960;DHT22;3006;50.956;7.002;2022-10-22T07:51:06;15.60;99.90
5960;DHT22;3006;50.956;7.002;2022-10-22T07:53:35;15.70;99.90
5960;DHT22;3006;50.956;7.002;2022-10-22T07:56:04;15.80;99.90
5960;DHT22;3006;50.956;7.002;2022-10-22T07:58:32;15.80;99.90
5960;DHT22;3006;50.956;7.002;2022-10-22T08:01:01;15.90;99.90
5960;DHT22;3006;50.956;7.002;2022-10-22T08:03:31;16.00;99.90
5960;DHT22;3006;50.956;7.002;2022-10-22T08:06:00;16.00;99.90
5960;DHT22;3006;50.956;7.002;2022-10-22T08:08:28;16.10;99.90
5960;DHT22;3006;50.956;7.002;2022-10-22T08:10:59;16.20;99.90
5960;DHT22;3006;50.956;7.002;2022-10-22T08:13:28;16.30;99.90
5960;DHT22;3006;50.956;7.002;2022-10-22T08:15:57;16.40;99.90
5960;DHT22;3006;50.956;7.002;2022-10-22T08:18:26;16.40;99.90
5960;DHT22;3006;50.956;7.002;2022-10-22T08:20:54;16.50;99.90
5960;DHT22;3006;50.956;7.002;2022-10-22T08:23:22;16.50;99.90
5960;DHT22;3006;50.956;7.002;2022-10-22T08:25:54;16.60;99.90
5960;DHT22;3006;50.956;7.002;2022-10-22T08:28:24;16.60;99.90
5960;DHT22;3006;50.956;7.002;2022-10-22T08:30:54;16.60;99.90
5960;DHT22;3006;50.956;7.002;2022-10-22T08:33:22;16.60;99.90
5960;DHT22;3006;50.956;7.002;2022-10-22T08:35:51;16.60;99.90
5960;DHT22;3006;50.956;7.002;2022-10-22T08:38:19;16.50;99.90
5960;DHT22;3006;50.956;7.002;2022-10-22T08:40:49;16.50;99.90
5960;DHT22;3006;50.956;7.002;2022-10-22T08:47:04;16.40;99.90
5960;DHT22;3006;50.956;7.002;2022-10-22T08:49:39;16.40;99.90
5960;DHT22;3006;50.956;7.002;2022-10-22T08:52:10;16.40;99.90
5960;DHT22;3006;50.956;7.002;2022-10-22T08:54:47;16.50;99.90
5960;DHT22;3006;50.956;7.002;2022-10-22T08:57:35;16.60;99.90
5960;DHT22;3006;50.956;7.002;2022-10-22T09:00:13;16.70;99.90
5960;DHT22;3006;50.956;7.002;2022-10-22T09:02:56;16.70;99.90
5960;DHT22;3006;50.956;7.002;2022-10-22T09:05:35;16.80;99.90
5960;DHT22;3006;50.956;7.002;2022-10-22T09:08:09;16.80;99.90
5960;DHT22;3006;50.956;7.002;2022-10-22T09:10:45;16.80;99.90
5960;DHT22;3006;50.956;7.002;2022-10-22T09:13:17;16.90;99.90
5960;DHT22;3006;50.956;7.002;2022-10-22T09:15:50;16.90;99.90
5960;DHT22;3006;50.956;7.002;2022-10-22T09:18:32;16.90;99.90
5960;DHT22;3006;50.956;7.002;2022-10-22T09:21:05;16.90;99.90
5960;DHT22;3006;50.956;7.002;2022-10-22T09:23:48;17.00;99.90
5960;DHT22;3006;50.956;7.002;2022-10-22T09:26:17;17.00;99.90
5960;DHT22;3006;50.956;7.002;2022-10-22T09:28:49;17.00;99.90
5960;DHT22;3006;50.956;7.002;2022-10-22T09:31:17;17.00;99.90
5960;DHT22;3006;50.956;7.002;2022-10-22T09:33:49;17.00;99.90
5960;DHT22;3006;50.956;7.002;2022-10-22T09:36:21;17.00;99.90
5960;DHT22;3006;50.956;7.002;2022-10-22T09:38:51;17.00;99.90
5960;DHT22;3006;50.956;7.002;2022-10-22T09:41:27;17.00;99.90
5960;DHT22;3006;50.956;7.002;2022-10-22T09:43:57;17.10;99.90
5960;DHT22;3006;50.956;7.002;2022-10-22T09:46:28;17.10;99.90
5960;DHT22;3006;50.956;7.002;2022-10-22T09:49:04;17.10;99.90
5960;DHT22;3006;50.956;7.002;2022-10-22T09:51:47;17.00;99.90
5960;DHT22;3006;50.956;7.002;2022-10-22T09:54:17;17.00;99.90
5960;DHT22;3006;50.956;7.002;2022-10-22T09:56:51;17.00;99.90
5960;DHT22;3006;50.956;7.002;2022-10-22T09:59:26;17.00;99.90
5960;DHT22;3006;50.956;7.002;2022-10-22T10:02:01;17.00;99.90
5960;DHT22;3006;50.956;7.002;2022-10-22T10:04:49;17.00;99.90
5960;DHT22;3006;50.956;7.002;2022-10-22T10:07:20;17.00;99.90
5960;DHT22;3006;50.956;7.002;2022-10-22T10:09:49;17.10;99.90
5960;DHT22;3006;50.956;7.002;2022-10-22T10:12:36;17.00;99.90
5960;DHT22;3006;50.956;7.002;2022-10-22T10:15:12;17.10;99.90
5960;DHT22;3006;50.956;7.002;2022-10-22T10:17:48;17.10;99.90
5960;DHT22;3006;50.956;7.002;2022-10-22T10:20:29;17.10;99.90
5960;DHT22;3006;50.956;7.002;2022-10-22T10:23:07;17.00;99.90
5960;DHT22;3006;50.956;7.002;2022-10-22T10:25:47;17.10;99.90
5960;DHT22;3006;50.956;7.002;2022-10-22T10:28:23;17.20;99.90
5960;DHT22;3006;50.956;7.002;2022-10-22T10:30:58;17.20;99.90
5960;DHT22;3006;50.956;7.002;2022-10-22T10:33:36;17.20;99.90
5960;DHT22;3006;50.956;7.002;2022-10-22T10:36:16;17.20;99.90
5960;DHT22;3006;50.956;7.002;2022-10-22T10:38:54;17.20;99.90
5960;DHT22;3006;50.956;7.002;2022-10-22T10:41:32;17.30;99.90
5960;DHT22;3006;50.956;7.002;2022-10-22T10:44:21;17.30;99.90
5960;DHT22;3006;50.956;7.002;2022-10-22T10:46:58;17.30;99.90
5960;DHT22;3006;50.956;7.002;2022-10-22T10:49:32;17.30;99.90
5960;DHT22;3006;50.956;7.002;2022-10-22T10:52:09;17.30;99.90
5960;DHT22;3006;50.956;7.002;2022-10-22T10:54:47;17.40;99.90
5960;DHT22;3006;50.956;7.002;2022-10-22T10:57:29;17.50;99.90
5960;DHT22;3006;50.956;7.002;2022-10-22T11:00:05;17.50;99.90
5960;DHT22;3006;50.956;7.002;2022-10-22T11:03:00;17.60;99.90
5960;DHT22;3006;50.956;7.002;2022-10-22T11:05:37;17.60;99.90
5960;DHT22;3006;50.956;7.002;2022-10-22T11:08:12;17.70;99.90
5960;DHT22;3006;50.956;7.002;2022-10-22T11:10:45;17.70;99.90
5960;DHT22;3006;50.956;7.002;2022-10-22T11:13:20;17.70;99.90
5960;DHT22;3006;50.956;7.002;2022-10-22T11:15:56;17.70;99.90
5960;DHT22;3006;50.956;7.002;2022-10-22T11:18:29;17.80;99.90
5960;DHT22;3006;50.956;7.002;2022-10-22T11:21:07;17.80;99.90
5960;DHT22;3006;50.956;7.002;2022-10-22T11:23:43;17.90;99.90
5960;DHT22;3006;50.956;7.002;2022-10-22T11:26:17;17.90;99.90
5960;DHT22;3006;50.956;7.002;2022-10-22T11:28:49;17.90;99.90
5960;DHT22;3006;50.956;7.002;2022-10-22T11:31:22;17.80;99.90
5960;DHT22;3006;50.956;7.002;2022-10-22T11:33:53;17.80;99.90
5960;DHT22;3006;50.956;7.002;2022-10-22T11:36:41;17.80;99.90
5960;DHT22;3006;50.956;7.002;2022-10-22T11:39:30;17.70;99.90
5960;DHT22;3006;50.956;7.002;2022-10-22T11:41:58;17.70;99.90
5960;DHT22;3006;50.956;7.002;2022-10-22T11:44:28;17.70;99.90
5960;DHT22;3006;50.956;7.002;2022-10-22T11:47:08;17.60;99.90
5960;DHT22;3006;50.956;7.002;2022-10-22T11:49:43;17.60;99.90
5960;DHT22;3006;50.956;7.002;2022-10-22T11:52:24;17.60;99.90
5960;DHT22;3006;50.956;7.002;2022-10-22T11:54:55;17.60;99.90
5960;DHT22;3006;50.956;7.002;2022-10-22T11:57:29;17.60;99.90
5960;DHT22;3006;50.956;7.002;2022-10-22T12:00:09;17.60;99.90
5960;DHT22;3006;50.956;7.002;2022-10-22T12:02:40;17.70;99.90
5960;DHT22;3006;50.956;7.002;2022-10-22T12:05:40;17.70;99.90
5960;DHT22;3006;50.956;7.002;2022-10-22T12:08:22;17.70;99.90
5960;DHT22;3006;50.956;7.002;2022-10-22T12:11:02;17.80;99.90
5960;DHT22;3006;50.956;7.002;2022-10-22T12:13:32;17.80;99.90
5960;DHT22;3006;50.956;7.002;2022-10-22T12:16:03;17.80;99.90
5960;DHT22;3006;50.956;7.002;2022-10-22T12:18:39;17.80;99.90
5960;DHT22;3006;50.956;7.002;2022-10-22T12:21:11;17.80;99.90
5960;DHT22;3006;50.956;7.002;2022-10-22T12:23:39;17.80;99.90
5960;DHT22;3006;50.956;7.002;2022-10-22T12:26:23;17.80;99.90
5960;DHT22;3006;50.956;7.002;2022-10-22T12:28:56;17.90;99.90
5960;DHT22;3006;50.956;7.002;2022-10-22T12:31:25;17.80;99.90
5960;DHT22;3006;50.956;7.002;2022-10-22T12:33:57;17.80;99.90
5960;DHT22;3006;50.956;7.002;2022-10-22T12:36:26;17.80;99.90
5960;DHT22;3006;50.956;7.002;2022-10-22T12:38:54;17.90;99.90
5960;DHT22;3006;50.956;7.002;2022-10-22T12:41:29;18.00;99.90
5960;DHT22;3006;50.956;7.002;2022-10-22T12:43:58;18.10;99.90
5960;DHT22;3006;50.956;7.002;2022-10-22T12:46:28;18.20;99.90
5960;DHT22;3006;50.956;7.002;2022-10-22T12:48:59;18.20;99.90
5960;DHT22;3006;50.956;7.002;2022-10-22T12:51:27;18.40;99.90
5960;DHT22;3006;50.956;7.002;2022-10-22T12:53:58;18.70;99.90
5960;DHT22;3006;50.956;7.002;2022-10-22T12:56:32;19.00;99.90
5960;DHT22;3006;50.956;7.002;2022-10-22T12:59:02;19.20;99.90
5960;DHT22;3006;50.956;7.002;2022-10-22T13:01:35;19.40;99.90
5960;DHT22;3006;50.956;7.002;2022-10-22T13:04:19;19.60;99.90
5960;DHT22;3006;50.956;7.002;2022-10-22T13:06:49;19.70;99.90
5960;DHT22;3006;50.956;7.002;2022-10-22T13:09:19;19.80;99.90
5960;DHT22;3006;50.956;7.002;2022-10-22T13:11:55;20.00;99.90
5960;DHT22;3006;50.956;7.002;2022-10-22T13:14:27;20.20;99.90
5960;DHT22;3006;50.956;7.002;2022-10-22T13:17:03;20.20;99.90
5960;DHT22;3006;50.956;7.002;2022-10-22T13:19:38;20.10;99.90
5960;DHT22;3006;50.956;7.002;2022-10-22T13:22:23;20.00;99.90
5960;DHT22;3006;50.956;7.002;2022-10-22T13:24:51;19.80;99.90
5960;DHT22;3006;50.956;7.002;2022-10-22T13:27:28;19.60;99.90
5960;DHT22;3006;50.956;7.002;2022-10-22T13:30:08;19.40;99.90
5960;DHT22;3006;50.956;7.002;2022-10-22T13:32:37;19.40;99.90
5960;DHT22;3006;50.956;7.002;2022-10-22T13:35:06;19.40;99.90
5960;DHT22;3006;50.956;7.002;2022-10-22T13:37:35;19.40;99.90
5960;DHT22;3006;50.956;7.002;2022-10-22T13:40:10;19.30;99.90
5960;DHT22;3006;50.956;7.002;2022-10-22T13:42:40;19.20;99.90
5960;DHT22;3006;50.956;7.002;2022-10-22T13:45:08;19.20;99.90
5960;DHT22;3006;50.956;7.002;2022-10-22T13:47:37;19.50;99.90
5960;DHT22;3006;50.956;7.002;2022-10-22T13:50:12;19.90;99.90
5960;DHT22;3006;50.956;7.002;2022-10-22T13:52:45;20.30;99.90
5960;DHT22;3006;50.956;7.002;2022-10-22T13:55:16;20.70;99.90
5960;DHT22;3006;50.956;7.002;2022-10-22T13:57:47;20.70;99.90
5960;DHT22;3006;50.956;7.002;2022-10-22T14:00:17;20.50;99.90
5960;DHT22;3006;50.956;7.002;2022-10-22T14:02:47;20.30;99.90
5960;DHT22;3006;50.956;7.002;2022-10-22T14:05:17;20.00;99.90
5960;DHT22;3006;50.956;7.002;2022-10-22T14:07:45;20.00;99.90
5960;DHT22;3006;50.956;7.002;2022-10-22T14:10:16;19.80;99.90
5960;DHT22;3006;50.956;7.002;2022-10-22T14:12:46;19.70;99.90
5960;DHT22;3006;50.956;7.002;2022-10-22T14:15:21;19.60;99.90
5960;DHT22;3006;50.956;7.002;2022-10-22T14:17:54;19.50;99.90
5960;DHT22;3006;50.956;7.002;2022-10-22T14:20:26;19.50;99.90
5960;DHT22;3006;50.956;7.002;2022-10-22T14:22:56;19.50;99.90
5960;DHT22;3006;50.956;7.002;2022-10-22T14:25:28;19.30;99.90
5960;DHT22;3006;50.956;7.002;2022-10-22T14:27:58;19.20;99.90
5960;DHT22;3006;50.956;7.002;2022-10-22T14:30:26;19.10;99.90
5960;DHT22;3006;50.956;7.002;2022-10-22T14:32:56;19.00;99.90
5960;DHT22;3006;50.956;7.002;2022-10-22T14:35:25;19.00;99.90
5960;DHT22;3006;50.956;7.002;2022-10-22T14:37:53;19.00;99.90
5960;DHT22;3006;50.956;7.002;2022-10-22T14:40:21;19.00;99.90
5960;DHT22;3006;50.956;7.002;2022-10-22T14:42:51;19.00;99.90
5960;DHT22;3006;50.956;7.002;2022-10-22T14:45:23;19.00;99.90
5960;DHT22;3006;50.956;7.002;2022-10-22T14:47:52;19.00;99.90
5960;DHT22;3006;50.956;7.002;2022-10-22T14:50:21;19.00;99.90
5960;DHT22;3006;50.956;7.002;2022-10-22T14:52:50;19.00;99.90
5960;DHT22;3006;50.956;7.002;2022-10-22T14:55:19;19.00;99.90
5960;DHT22;3006;50.956;7.002;2022-10-22T14:57:47;19.10;99.90
5960;DHT22;3006;50.956;7.002;2022-10-22T15:00:16;19.20;99.90
5960;DHT22;3006;50.956;7.002;2022-10-22T15:02:47;19.20;99.90
5960;DHT22;3006;50.956;7.002;2022-10-22T15:05:15;19.20;99.90
5960;DHT22;3006;50.956;7.002;2022-10-22T15:07:43;19.20;99.90
5960;DHT22;3006;50.956;7.002;2022-10-22T15:10:11;19.20;99.90
5960;DHT22;3006;50.956;7.002;2022-10-22T15:12:39;19.20;99.90
5960;DHT22;3006;50.956;7.002;2022-10-22T15:15:08;19.20;99.90
5960;DHT22;3006;50.956;7.002;2022-10-22T15:17:36;19.10;99.90
5960;DHT22;3006;50.956;7.002;2022-10-22T15:20:06;19.00;99.90
5960;DHT22;3006;50.956;7.002;2022-10-22T15:22:35;18.90;99.90
5960;DHT22;3006;50.956;7.002;2022-10-22T15:25:06;18.90;99.90
5960;DHT22;3006;50.956;7.002;2022-10-22T15:27:34;18.90;99.90
5960;DHT22;3006;50.956;7.002;2022-10-22T15:30:03;18.80;99.90
5960;DHT22;3006;50.956;7.002;2022-10-22T15:32:31;18.80;99.90
5960;DHT22;3006;50.956;7.002;2022-10-22T15:34:59;18.70;99.90
5960;DHT22;3006;50.956;7.002;2022-10-22T15:37:29;18.60;99.90
5960;DHT22;3006;50.956;7.002;2022-10-22T15:39:57;18.60;99.90
5960;DHT22;3006;50.956;7.002;2022-10-22T15:42:26;18.50;99.90
5960;DHT22;3006;50.956;7.002;2022-10-22T15:44:57;18.50;99.90
5960;DHT22;3006;50.956;7.002;2022-10-22T15:47:25;18.40;99.90
5960;DHT22;3006;50.956;7.002;2022-10-22T15:49:55;18.40;99.90
5960;DHT22;3006;50.956;7.002;2022-10-22T15:52:23;18.30;99.90
5960;DHT22;3006;50.956;7.002;2022-10-22T15:54:53;18.20;99.90
5960;DHT22;3006;50.956;7.002;2022-10-22T15:57:21;18.30;99.90
5960;DHT22;3006;50.956;7.002;2022-10-22T15:59:49;18.20;99.90
5960;DHT22;3006;50.956;7.002;2022-10-22T16:02:17;18.20;99.90
5960;DHT22;3006;50.956;7.002;2022-10-22T16:04:45;18.20;99.90
5960;DHT22;3006;50.956;7.002;2022-10-22T16:07:13;18.10;99.90
5960;DHT22;3006;50.956;7.002;2022-10-22T16:09:42;18.10;99.90
5960;DHT22;3006;50.956;7.002;2022-10-22T16:12:11;18.10;99.90
5960;DHT22;3006;50.956;7.002;2022-10-22T16:14:43;18.00;99.90
5960;DHT22;3006;50.956;7.002;2022-10-22T16:17:12;18.00;99.90
5960;DHT22;3006;50.956;7.002;2022-10-22T16:19:40;17.90;99.90
5960;DHT22;3006;50.956;7.002;2022-10-22T16:22:08;17.90;99.90
5960;DHT22;3006;50.956;7.002;2022-10-22T16:24:39;17.80;99.90
5960;DHT22;3006;50.956;7.002;2022-10-22T16:27:07;17.70;99.90
5960;DHT22;3006;50.956;7.002;2022-10-22T16:29:37;17.60;99.90
5960;DHT22;3006;50.956;7.002;2022-10-22T16:32:06;17.60;99.90